sensor_id;sensor_type;location;lat;lon;timestamp;P1;durP1;ratioP1;P2;durP2;ratioP2
67595;SDS011;54410;48.694;8.934;2022-10-17T00:02:19;5.50;;;4.35;;
67595;SDS011;54410;48.694;8.934;2022-10-17T00:04:45;6.25;;;4.85;;
67595;SDS011;54410;48.694;8.934;2022-10-17T00:07:11;8.30;;;5.50;;
67595;SDS011;54410;48.694;8.934;2022-10-17T00:09:37;8.13;;;4.32;;
67595;SDS011;54410;48.694;8.934;2022-10-17T00:12:03;5.78;;;4.57;;
67595;SDS011;54410;48.694;8.934;2022-10-17T00:14:29;4.85;;;4.35;;
67595;SDS011;54410;48.694;8.934;2022-10-17T00:16:55;7.68;;;4.18;;
67595;SDS011;54410;48.694;8.934;2022-10-17T00:19:21;5.60;;;4.30;;
67595;SDS011;54410;48.694;8.934;2022-10-17T00:21:47;4.35;;;3.60;;
67595;SDS011;54410;48.694;8.934;2022-10-17T00:24:14;5.72;;;4.13;;
67595;SDS011;54410;48.694;8.934;2022-10-17T00:26:40;4.68;;;3.50;;
67595;SDS011;54410;48.694;8.934;2022-10-17T00:29:05;6.13;;;3.22;;
67595;SDS011;54410;48.694;8.934;2022-10-17T00:31:31;4.82;;;3.30;;
67595;SDS011;54410;48.694;8.934;2022-10-17T00:33:57;8.88;;;3.22;;
67595;SDS011;54410;48.694;8.934;2022-10-17T00:36:24;6.43;;;4.18;;
67595;SDS011;54410;48.694;8.934;2022-10-17T00:38:52;7.13;;;4.80;;
67595;SDS011;54410;48.694;8.934;2022-10-17T00:41:25;6.47;;;4.05;;
67595;SDS011;54410;48.694;8.934;2022-10-17T00:43:56;6.40;;;4.22;;
67595;SDS011;54410;48.694;8.934;2022-10-17T00:46:23;4.28;;;3.60;;
67595;SDS011;54410;48.694;8.934;2022-10-17T00:48:50;4.90;;;3.78;;
67595;SDS011;54410;48.694;8.934;2022-10-17T00:51:16;5.75;;;3.60;;
67595;SDS011;54410;48.694;8.934;2022-10-17T00:53:45;3.20;;;2.80;;
67595;SDS011;54410;48.694;8.934;2022-10-17T00:56:10;4.93;;;2.95;;
67595;SDS011;54410;48.694;8.934;2022-10-17T00:58:37;5.78;;;3.20;;
67595;SDS011;54410;48.694;8.934;2022-10-17T01:01:03;5.95;;;2.95;;
67595;SDS011;54410;48.694;8.934;2022-10-17T01:03:29;3.83;;;3.13;;
67595;SDS011;54410;48.694;8.934;2022-10-17T01:05:55;5.20;;;3.10;;
67595;SDS011;54410;48.694;8.934;2022-10-17T01:08:21;7.13;;;3.22;;
67595;SDS011;54410;48.694;8.934;2022-10-17T01:10:55;4.45;;;3.22;;
67595;SDS011;54410;48.694;8.934;2022-10-17T01:13:24;3.17;;;2.88;;
67595;SDS011;54410;48.694;8.934;2022-10-17T01:15:59;5.47;;;2.97;;
67595;SDS011;54410;48.694;8.934;2022-10-17T01:18:36;4.57;;;3.38;;
67595;SDS011;54410;48.694;8.934;2022-10-17T01:24:36;5.38;;;2.92;;
67595;SDS011;54410;48.694;8.934;2022-10-17T01:32:36;5.72;;;3.20;;
67595;SDS011;54410;48.694;8.934;2022-10-17T01:37:35;4.82;;;3.25;;
67595;SDS011;54410;48.694;8.934;2022-10-17T01:42:50;3.40;;;3.10;;
67595;SDS011;54410;48.694;8.934;2022-10-17T01:45:27;4.32;;;3.00;;
67595;SDS011;54410;48.694;8.934;2022-10-17T01:47:54;3.78;;;2.60;;
67595;SDS011;54410;48.694;8.934;2022-10-17T01:50:28;5.32;;;3.30;;
67595;SDS011;54410;48.694;8.934;2022-10-17T01:53:02;5.80;;;3.70;;
67595;SDS011;54410;48.694;8.934;2022-10-17T01:55:31;6.35;;;3.70;;
67595;SDS011;54410;48.694;8.934;2022-10-17T01:58:06;6.43;;;3.70;;
67595;SDS011;54410;48.694;8.934;2022-10-17T02:00:34;4.03;;;3.17;;
67595;SDS011;54410;48.694;8.934;2022-10-17T02:03:03;5.47;;;3.08;;
67595;SDS011;54410;48.694;8.934;2022-10-17T02:05:31;3.72;;;3.00;;
67595;SDS011;54410;48.694;8.934;2022-10-17T02:07:58;3.95;;;3.22;;
67595;SDS011;54410;48.694;8.934;2022-10-17T02:10:31;5.70;;;3.25;;
67595;SDS011;54410;48.694;8.934;2022-10-17T02:16:10;4.28;;;2.67;;
67595;SDS011;54410;48.694;8.934;2022-10-17T02:18:46;4.32;;;3.08;;
67595;SDS011;54410;48.694;8.934;2022-10-17T02:23:43;3.72;;;3.05;;
67595;SDS011;54410;48.694;8.934;2022-10-17T02:26:18;8.65;;;3.00;;
67595;SDS011;54410;48.694;8.934;2022-10-17T02:28:46;4.95;;;3.03;;
67595;SDS011;54410;48.694;8.934;2022-10-17T02:31:42;4.22;;;3.20;;
67595;SDS011;54410;48.694;8.934;2022-10-17T02:34:55;4.15;;;3.35;;
67595;SDS011;54410;48.694;8.934;2022-10-17T02:36:57;6.68;;;3.65;;
67595;SDS011;54410;48.694;8.934;2022-10-17T02:39:24;5.40;;;3.38;;
67595;SDS011;54410;48.694;8.934;2022-10-17T02:41:52;4.88;;;3.28;;
67595;SDS011;54410;48.694;8.934;2022-10-17T02:44:20;4.15;;;2.92;;
67595;SDS011;54410;48.694;8.934;2022-10-17T02:46:48;5.32;;;3.33;;
67595;SDS011;54410;48.694;8.934;2022-10-17T02:49:19;5.50;;;3.42;;
67595;SDS011;54410;48.694;8.934;2022-10-17T02:51:49;4.90;;;2.88;;
67595;SDS011;54410;48.694;8.934;2022-10-17T02:56:53;5.68;;;3.03;;
67595;SDS011;54410;48.694;8.934;2022-10-17T02:59:20;4.40;;;2.90;;
67595;SDS011;54410;48.694;8.934;2022-10-17T03:01:48;4.03;;;3.20;;
67595;SDS011;54410;48.694;8.934;2022-10-17T03:04:15;3.95;;;3.30;;
67595;SDS011;54410;48.694;8.934;2022-10-17T03:06:42;4.25;;;3.50;;
67595;SDS011;54410;48.694;8.934;2022-10-17T03:09:08;5.30;;;2.95;;
67595;SDS011;54410;48.694;8.934;2022-10-17T03:11:33;8.68;;;3.53;;
67595;SDS011;54410;48.694;8.934;2022-10-17T03:13:59;4.00;;;3.08;;
67595;SDS011;54410;48.694;8.934;2022-10-17T03:16:25;3.85;;;3.10;;
67595;SDS011;54410;48.694;8.934;2022-10-17T03:18:51;4.57;;;3.42;;
67595;SDS011;54410;48.694;8.934;2022-10-17T03:21:17;3.30;;;2.88;;
67595;SDS011;54410;48.694;8.934;2022-10-17T03:23:43;9.38;;;3.28;;
67595;SDS011;54410;48.694;8.934;2022-10-17T03:26:09;3.88;;;2.95;;
67595;SDS011;54410;48.694;8.934;2022-10-17T03:28:34;3.08;;;2.80;;
67595;SDS011;54410;48.694;8.934;2022-10-17T03:31:07;5.78;;;3.30;;
67595;SDS011;54410;48.694;8.934;2022-10-17T03:33:42;4.25;;;2.95;;
67595;SDS011;54410;48.694;8.934;2022-10-17T03:36:08;4.03;;;3.22;;
67595;SDS011;54410;48.694;8.934;2022-10-17T03:38:36;3.75;;;3.10;;
67595;SDS011;54410;48.694;8.934;2022-10-17T03:41:02;3.35;;;3.05;;
67595;SDS011;54410;48.694;8.934;2022-10-17T03:43:28;3.58;;;3.05;;
67595;SDS011;54410;48.694;8.934;2022-10-17T03:45:55;3.58;;;3.28;;
67595;SDS011;54410;48.694;8.934;2022-10-17T03:48:22;4.68;;;3.13;;
67595;SDS011;54410;48.694;8.934;2022-10-17T03:50:47;3.80;;;3.00;;
67595;SDS011;54410;48.694;8.934;2022-10-17T03:53:13;3.50;;;3.20;;
67595;SDS011;54410;48.694;8.934;2022-10-17T03:55:39;3.17;;;2.88;;
67595;SDS011;54410;48.694;8.934;2022-10-17T03:58:05;3.40;;;3.10;;
67595;SDS011;54410;48.694;8.934;2022-10-17T04:00:31;4.32;;;3.15;;
67595;SDS011;54410;48.694;8.934;2022-10-17T04:02:57;4.15;;;3.40;;
67595;SDS011;54410;48.694;8.934;2022-10-17T04:05:23;5.78;;;3.00;;
67595;SDS011;54410;48.694;8.934;2022-10-17T04:07:49;4.07;;;3.33;;
67595;SDS011;54410;48.694;8.934;2022-10-17T04:10:15;5.15;;;3.72;;
67595;SDS011;54410;48.694;8.934;2022-10-17T04:12:41;6.07;;;3.42;;
67595;SDS011;54410;48.694;8.934;2022-10-17T04:15:07;5.38;;;3.30;;
67595;SDS011;54410;48.694;8.934;2022-10-17T04:17:33;8.40;;;3.70;;
67595;SDS011;54410;48.694;8.934;2022-10-17T04:19:59;6.88;;;3.85;;
67595;SDS011;54410;48.694;8.934;2022-10-17T04:22:25;4.40;;;3.72;;
67595;SDS011;54410;48.694;8.934;2022-10-17T04:24:51;4.10;;;3.70;;
67595;SDS011;54410;48.694;8.934;2022-10-17T04:27:17;6.57;;;4.47;;
67595;SDS011;54410;48.694;8.934;2022-10-17T04:29:43;6.30;;;4.50;;
67595;SDS011;54410;48.694;8.934;2022-10-17T04:32:09;6.72;;;4.28;;
67595;SDS011;54410;48.694;8.934;2022-10-17T04:34:34;5.03;;;4.35;;
67595;SDS011;54410;48.694;8.934;2022-10-17T04:37:00;4.68;;;3.83;;
67595;SDS011;54410;48.694;8.934;2022-10-17T04:39:26;4.03;;;3.63;;
67595;SDS011;54410;48.694;8.934;2022-10-17T04:41:52;5.53;;;3.58;;
67595;SDS011;54410;48.694;8.934;2022-10-17T04:44:20;6.60;;;4.13;;
67595;SDS011;54410;48.694;8.934;2022-10-17T04:46:46;4.70;;;3.92;;
67595;SDS011;54410;48.694;8.934;2022-10-17T04:49:12;7.32;;;3.88;;
67595;SDS011;54410;48.694;8.934;2022-10-17T04:51:38;9.45;;;4.70;;
67595;SDS011;54410;48.694;8.934;2022-10-17T04:54:04;5.53;;;3.65;;
67595;SDS011;54410;48.694;8.934;2022-10-17T04:56:30;4.97;;;3.60;;
67595;SDS011;54410;48.694;8.934;2022-10-17T04:58:56;5.23;;;4.20;;
67595;SDS011;54410;48.694;8.934;2022-10-17T05:01:23;5.82;;;4.28;;
67595;SDS011;54410;48.694;8.934;2022-10-17T05:03:50;4.95;;;4.45;;
67595;SDS011;54410;48.694;8.934;2022-10-17T05:06:20;7.80;;;4.40;;
67595;SDS011;54410;48.694;8.934;2022-10-17T05:08:47;4.93;;;3.90;;
67595;SDS011;54410;48.694;8.934;2022-10-17T05:11:20;4.90;;;4.40;;
67595;SDS011;54410;48.694;8.934;2022-10-17T05:13:53;6.10;;;4.28;;
67595;SDS011;54410;48.694;8.934;2022-10-17T05:16:19;5.20;;;3.42;;
67595;SDS011;54410;48.694;8.934;2022-10-17T05:18:49;7.65;;;3.50;;
67595;SDS011;54410;48.694;8.934;2022-10-17T05:21:15;3.88;;;3.58;;
67595;SDS011;54410;48.694;8.934;2022-10-17T05:23:42;6.20;;;3.95;;
67595;SDS011;54410;48.694;8.934;2022-10-17T05:26:08;4.40;;;4.00;;
67595;SDS011;54410;48.694;8.934;2022-10-17T05:28:34;7.18;;;3.92;;
67595;SDS011;54410;48.694;8.934;2022-10-17T05:31:03;7.10;;;4.05;;
67595;SDS011;54410;48.694;8.934;2022-10-17T05:33:29;5.13;;;4.20;;
67595;SDS011;54410;48.694;8.934;2022-10-17T05:35:55;4.68;;;4.03;;
67595;SDS011;54410;48.694;8.934;2022-10-17T05:38:21;14.82;;;4.65;;
67595;SDS011;54410;48.694;8.934;2022-10-17T05:40:47;4.07;;;3.28;;
67595;SDS011;54410;48.694;8.934;2022-10-17T05:43:13;3.72;;;3.05;;
67595;SDS011;54410;48.694;8.934;2022-10-17T05:45:39;3.50;;;3.17;;
67595;SDS011;54410;48.694;8.934;2022-10-17T05:48:05;4.20;;;3.33;;
67595;SDS011;54410;48.694;8.934;2022-10-17T05:50:32;4.47;;;3.35;;
67595;SDS011;54410;48.694;8.934;2022-10-17T05:52:58;3.42;;;3.05;;
67595;SDS011;54410;48.694;8.934;2022-10-17T05:55:24;5.55;;;3.90;;
67595;SDS011;54410;48.694;8.934;2022-10-17T05:57:50;4.72;;;3.50;;
67595;SDS011;54410;48.694;8.934;2022-10-17T06:00:18;7.80;;;4.07;;
67595;SDS011;54410;48.694;8.934;2022-10-17T06:02:44;7.30;;;5.55;;
67595;SDS011;54410;48.694;8.934;2022-10-17T06:05:10;8.07;;;5.03;;
67595;SDS011;54410;48.694;8.934;2022-10-17T06:07:36;9.00;;;4.93;;
67595;SDS011;54410;48.694;8.934;2022-10-17T06:10:02;8.00;;;5.05;;
67595;SDS011;54410;48.694;8.934;2022-10-17T06:12:28;8.90;;;5.25;;
67595;SDS011;54410;48.694;8.934;2022-10-17T06:14:54;11.07;;;4.93;;
67595;SDS011;54410;48.694;8.934;2022-10-17T06:17:20;6.78;;;5.40;;
67595;SDS011;54410;48.694;8.934;2022-10-17T06:19:46;8.73;;;5.20;;
67595;SDS011;54410;48.694;8.934;2022-10-17T06:22:12;8.35;;;4.30;;
67595;SDS011;54410;48.694;8.934;2022-10-17T06:24:38;7.60;;;4.53;;
67595;SDS011;54410;48.694;8.934;2022-10-17T06:27:04;8.07;;;5.05;;
67595;SDS011;54410;48.694;8.934;2022-10-17T06:29:30;5.10;;;4.53;;
67595;SDS011;54410;48.694;8.934;2022-10-17T06:31:56;6.43;;;3.85;;
67595;SDS011;54410;48.694;8.934;2022-10-17T06:34:22;7.30;;;4.22;;
67595;SDS011;54410;48.694;8.934;2022-10-17T06:36:48;5.03;;;3.88;;
67595;SDS011;54410;48.694;8.934;2022-10-17T06:39:14;7.22;;;3.78;;
67595;SDS011;54410;48.694;8.934;2022-10-17T06:41:40;5.88;;;3.55;;
67595;SDS011;54410;48.694;8.934;2022-10-17T06:44:07;6.22;;;3.85;;
67595;SDS011;54410;48.694;8.934;2022-10-17T06:46:35;7.78;;;4.10;;
67595;SDS011;54410;48.694;8.934;2022-10-17T06:49:05;4.28;;;3.38;;
67595;SDS011;54410;48.694;8.934;2022-10-17T06:51:33;4.78;;;3.38;;
67595;SDS011;54410;48.694;8.934;2022-10-17T06:54:00;5.10;;;3.63;;
67595;SDS011;54410;48.694;8.934;2022-10-17T06:56:26;4.82;;;3.28;;
67595;SDS011;54410;48.694;8.934;2022-10-17T06:58:51;5.28;;;3.45;;
67595;SDS011;54410;48.694;8.934;2022-10-17T07:01:18;7.93;;;3.30;;
67595;SDS011;54410;48.694;8.934;2022-10-17T07:03:46;4.72;;;2.95;;
67595;SDS011;54410;48.694;8.934;2022-10-17T07:06:12;3.88;;;3.40;;
67595;SDS011;54410;48.694;8.934;2022-10-17T07:08:41;4.18;;;3.22;;
67595;SDS011;54410;48.694;8.934;2022-10-17T07:11:09;4.78;;;4.30;;
67595;SDS011;54410;48.694;8.934;2022-10-17T07:13:36;7.22;;;4.78;;
67595;SDS011;54410;48.694;8.934;2022-10-17T07:16:02;8.82;;;4.00;;
67595;SDS011;54410;48.694;8.934;2022-10-17T07:18:29;7.80;;;4.70;;
67595;SDS011;54410;48.694;8.934;2022-10-17T07:20:54;7.68;;;4.40;;
67595;SDS011;54410;48.694;8.934;2022-10-17T07:23:21;5.75;;;3.90;;
67595;SDS011;54410;48.694;8.934;2022-10-17T07:25:48;5.72;;;4.18;;
67595;SDS011;54410;48.694;8.934;2022-10-17T07:28:15;9.07;;;4.07;;
67595;SDS011;54410;48.694;8.934;2022-10-17T07:30:41;4.68;;;4.15;;
67595;SDS011;54410;48.694;8.934;2022-10-17T07:33:08;4.22;;;3.28;;
67595;SDS011;54410;48.694;8.934;2022-10-17T07:35:36;3.60;;;3.00;;
67595;SDS011;54410;48.694;8.934;2022-10-17T07:38:05;4.85;;;3.25;;
67595;SDS011;54410;48.694;8.934;2022-10-17T07:40:30;7.90;;;3.50;;
67595;SDS011;54410;48.694;8.934;2022-10-17T07:42:57;7.72;;;6.95;;
67595;SDS011;54410;48.694;8.934;2022-10-17T07:45:23;4.25;;;3.25;;
67595;SDS011;54410;48.694;8.934;2022-10-17T07:48:01;7.90;;;3.38;;
67595;SDS011;54410;48.694;8.934;2022-10-17T07:50:27;4.70;;;4.03;;
67595;SDS011;54410;48.694;8.934;2022-10-17T07:52:53;4.03;;;3.10;;
67595;SDS011;54410;48.694;8.934;2022-10-17T07:55:19;7.07;;;2.53;;
67595;SDS011;54410;48.694;8.934;2022-10-17T07:57:45;3.88;;;2.30;;
67595;SDS011;54410;48.694;8.934;2022-10-17T08:00:12;5.20;;;1.90;;
67595;SDS011;54410;48.694;8.934;2022-10-17T08:02:38;2.90;;;1.80;;
67595;SDS011;54410;48.694;8.934;2022-10-17T08:05:04;4.35;;;1.50;;
67595;SDS011;54410;48.694;8.934;2022-10-17T08:07:31;2.17;;;1.70;;
67595;SDS011;54410;48.694;8.934;2022-10-17T08:09:57;8.40;;;1.70;;
67595;SDS011;54410;48.694;8.934;2022-10-17T08:12:23;3.03;;;1.88;;
67595;SDS011;54410;48.694;8.934;2022-10-17T08:14:49;2.03;;;1.35;;
67595;SDS011;54410;48.694;8.934;2022-10-17T08:17:15;2.08;;;1.38;;
67595;SDS011;54410;48.694;8.934;2022-10-17T08:19:41;3.60;;;1.65;;
67595;SDS011;54410;48.694;8.934;2022-10-17T08:22:07;5.63;;;4.97;;
67595;SDS011;54410;48.694;8.934;2022-10-17T08:24:34;2.80;;;1.52;;
67595;SDS011;54410;48.694;8.934;2022-10-17T08:27:00;2.78;;;1.10;;
67595;SDS011;54410;48.694;8.934;2022-10-17T08:29:25;1.88;;;1.30;;
67595;SDS011;54410;48.694;8.934;2022-10-17T08:31:52;2.28;;;1.38;;
67595;SDS011;54410;48.694;8.934;2022-10-17T08:34:18;1.92;;;1.35;;
67595;SDS011;54410;48.694;8.934;2022-10-17T08:36:44;3.42;;;1.40;;
67595;SDS011;54410;48.694;8.934;2022-10-17T08:39:10;3.85;;;1.40;;
67595;SDS011;54410;48.694;8.934;2022-10-17T08:42:23;1.48;;;1.27;;
67595;SDS011;54410;48.694;8.934;2022-10-17T08:44:47;4.63;;;3.90;;
67595;SDS011;54410;48.694;8.934;2022-10-17T08:47:34;1.42;;;1.30;;
67595;SDS011;54410;48.694;8.934;2022-10-17T08:50:01;3.85;;;1.83;;
67595;SDS011;54410;48.694;8.934;2022-10-17T08:52:35;2.42;;;1.30;;
67595;SDS011;54410;48.694;8.934;2022-10-17T08:55:17;1.98;;;1.40;;
67595;SDS011;54410;48.694;8.934;2022-10-17T08:57:46;3.30;;;1.40;;
67595;SDS011;54410;48.694;8.934;2022-10-17T09:00:19;2.15;;;1.05;;
67595;SDS011;54410;48.694;8.934;2022-10-17T09:15:33;1.42;;;1.08;;
67595;SDS011;54410;48.694;8.934;2022-10-17T09:18:12;1.40;;;1.17;;
67595;SDS011;54410;48.694;8.934;2022-10-17T09:20:51;1.50;;;1.30;;
67595;SDS011;54410;48.694;8.934;2022-10-17T09:23:25;1.02;;;0.93;;
67595;SDS011;54410;48.694;8.934;2022-10-17T09:25:53;1.63;;;1.40;;
67595;SDS011;54410;48.694;8.934;2022-10-17T09:28:21;1.85;;;1.25;;
67595;SDS011;54410;48.694;8.934;2022-10-17T09:33:31;1.45;;;1.35;;
67595;SDS011;54410;48.694;8.934;2022-10-17T09:35:58;1.33;;;1.15;;
67595;SDS011;54410;48.694;8.934;2022-10-17T09:38:27;1.92;;;1.35;;
67595;SDS011;54410;48.694;8.934;2022-10-17T09:41:00;2.13;;;1.65;;
67595;SDS011;54410;48.694;8.934;2022-10-17T09:43:27;1.25;;;1.15;;
67595;SDS011;54410;48.694;8.934;2022-10-17T09:48:33;2.00;;;1.55;;
67595;SDS011;54410;48.694;8.934;2022-10-17T09:51:01;3.17;;;1.48;;
67595;SDS011;54410;48.694;8.934;2022-10-17T09:53:35;3.33;;;1.20;;
67595;SDS011;54410;48.694;8.934;2022-10-17T09:56:06;2.05;;;1.48;;
67595;SDS011;54410;48.694;8.934;2022-10-17T09:58:39;2.63;;;1.50;;
67595;SDS011;54410;48.694;8.934;2022-10-17T10:03:48;3.28;;;1.45;;
67595;SDS011;54410;48.694;8.934;2022-10-17T10:06:39;2.63;;;1.50;;
67595;SDS011;54410;48.694;8.934;2022-10-17T10:09:06;1.95;;;1.38;;
67595;SDS011;54410;48.694;8.934;2022-10-17T10:11:44;2.88;;;1.60;;
67595;SDS011;54410;48.694;8.934;2022-10-17T10:14:19;2.25;;;1.60;;
67595;SDS011;54410;48.694;8.934;2022-10-17T10:16:46;2.42;;;1.67;;
67595;SDS011;54410;48.694;8.934;2022-10-17T10:19:56;2.28;;;1.48;;
67595;SDS011;54410;48.694;8.934;2022-10-17T10:22:12;2.35;;;1.50;;
67595;SDS011;54410;48.694;8.934;2022-10-17T10:24:39;1.45;;;1.35;;
67595;SDS011;54410;48.694;8.934;2022-10-17T10:27:11;2.83;;;1.88;;
67595;SDS011;54410;48.694;8.934;2022-10-17T10:29:56;2.25;;;1.50;;
67595;SDS011;54410;48.694;8.934;2022-10-17T10:34:55;6.43;;;1.73;;
67595;SDS011;54410;48.694;8.934;2022-10-17T10:37:23;2.05;;;1.40;;
67595;SDS011;54410;48.694;8.934;2022-10-17T10:39:54;5.22;;;1.63;;
67595;SDS011;54410;48.694;8.934;2022-10-17T10:42:25;1.98;;;1.60;;
67595;SDS011;54410;48.694;8.934;2022-10-17T10:44:52;1.80;;;1.52;;
67595;SDS011;54410;48.694;8.934;2022-10-17T10:49:45;2.47;;;1.85;;
67595;SDS011;54410;48.694;8.934;2022-10-17T10:52:18;3.05;;;1.98;;
67595;SDS011;54410;48.694;8.934;2022-10-17T10:54:54;2.40;;;1.45;;
67595;SDS011;54410;48.694;8.934;2022-10-17T10:57:22;2.22;;;1.58;;
67595;SDS011;54410;48.694;8.934;2022-10-17T11:02:29;3.22;;;1.70;;
67595;SDS011;54410;48.694;8.934;2022-10-17T11:05:05;3.75;;;1.45;;
67595;SDS011;54410;48.694;8.934;2022-10-17T11:07:53;2.08;;;1.10;;
67595;SDS011;54410;48.694;8.934;2022-10-17T11:13:12;1.95;;;1.55;;
67595;SDS011;54410;48.694;8.934;2022-10-17T11:15:51;2.85;;;1.55;;
67595;SDS011;54410;48.694;8.934;2022-10-17T11:18:43;1.83;;;1.50;;
67595;SDS011;54410;48.694;8.934;2022-10-17T11:21:36;2.08;;;1.48;;
67595;SDS011;54410;48.694;8.934;2022-10-17T11:24:10;4.43;;;1.60;;
67595;SDS011;54410;48.694;8.934;2022-10-17T11:26:40;10.13;;;7.03;;
67595;SDS011;54410;48.694;8.934;2022-10-17T11:29:11;3.85;;;1.60;;
67595;SDS011;54410;48.694;8.934;2022-10-17T11:31:40;1.92;;;1.35;;
67595;SDS011;54410;48.694;8.934;2022-10-17T11:34:09;3.38;;;1.30;;
67595;SDS011;54410;48.694;8.934;2022-10-17T11:36:43;3.17;;;1.50;;
67595;SDS011;54410;48.694;8.934;2022-10-17T11:42:01;1.90;;;1.60;;
67595;SDS011;54410;48.694;8.934;2022-10-17T11:44:33;3.50;;;1.30;;
67595;SDS011;54410;48.694;8.934;2022-10-17T11:49:47;3.22;;;1.15;;
67595;SDS011;54410;48.694;8.934;2022-10-17T11:52:29;2.33;;;1.30;;
67595;SDS011;54410;48.694;8.934;2022-10-17T11:55:25;4.30;;;1.42;;
67595;SDS011;54410;48.694;8.934;2022-10-17T12:08:29;3.35;;;1.42;;
67595;SDS011;54410;48.694;8.934;2022-10-17T12:19:48;1.48;;;1.38;;
67595;SDS011;54410;48.694;8.934;2022-10-17T12:22:18;1.98;;;1.08;;
67595;SDS011;54410;48.694;8.934;2022-10-17T12:24:55;3.83;;;1.20;;
67595;SDS011;54410;48.694;8.934;2022-10-17T12:27:34;1.02;;;0.93;;
67595;SDS011;54410;48.694;8.934;2022-10-17T12:30:02;2.05;;;0.90;;
67595;SDS011;54410;48.694;8.934;2022-10-17T12:32:29;2.55;;;1.13;;
67595;SDS011;54410;48.694;8.934;2022-10-17T12:34:55;1.63;;;0.80;;
67595;SDS011;54410;48.694;8.934;2022-10-17T12:42:51;3.03;;;0.90;;
67595;SDS011;54410;48.694;8.934;2022-10-17T12:48:02;1.25;;;0.80;;
67595;SDS011;54410;48.694;8.934;2022-10-17T12:50:59;1.55;;;1.20;;
67595;SDS011;54410;48.694;8.934;2022-10-17T12:56:00;2.20;;;1.00;;
67595;SDS011;54410;48.694;8.934;2022-10-17T12:58:26;1.75;;;0.88;;
67595;SDS011;54410;48.694;8.934;2022-10-17T13:00:54;5.05;;;1.27;;
67595;SDS011;54410;48.694;8.934;2022-10-17T13:03:23;1.33;;;1.00;;
67595;SDS011;54410;48.694;8.934;2022-10-17T13:05:55;2.47;;;0.90;;
67595;SDS011;54410;48.694;8.934;2022-10-17T13:08:30;2.50;;;1.00;;
67595;SDS011;54410;48.694;8.934;2022-10-17T13:10:58;2.40;;;0.80;;
67595;SDS011;54410;48.694;8.934;2022-10-17T13:15:59;1.45;;;1.00;;
67595;SDS011;54410;48.694;8.934;2022-10-17T13:18:26;1.80;;;0.93;;
67595;SDS011;54410;48.694;8.934;2022-10-17T13:21:14;2.35;;;1.35;;
67595;SDS011;54410;48.694;8.934;2022-10-17T13:23:38;1.80;;;1.00;;
67595;SDS011;54410;48.694;8.934;2022-10-17T13:26:26;1.30;;;0.95;;
67595;SDS011;54410;48.694;8.934;2022-10-17T13:29:04;1.70;;;1.13;;
67595;SDS011;54410;48.694;8.934;2022-10-17T13:31:32;4.22;;;1.05;;
67595;SDS011;54410;48.694;8.934;2022-10-17T13:33:59;1.60;;;0.98;;
67595;SDS011;54410;48.694;8.934;2022-10-17T13:36:26;2.42;;;0.80;;
67595;SDS011;54410;48.694;8.934;2022-10-17T13:38:53;2.97;;;1.30;;
67595;SDS011;54410;48.694;8.934;2022-10-17T13:41:22;1.00;;;0.90;;
67595;SDS011;54410;48.694;8.934;2022-10-17T13:43:49;1.08;;;1.00;;
67595;SDS011;54410;48.694;8.934;2022-10-17T13:46:19;2.33;;;1.17;;
67595;SDS011;54410;48.694;8.934;2022-10-17T13:48:48;2.40;;;1.23;;
67595;SDS011;54410;48.694;8.934;2022-10-17T13:51:14;1.75;;;1.30;;
67595;SDS011;54410;48.694;8.934;2022-10-17T13:53:40;3.45;;;1.27;;
67595;SDS011;54410;48.694;8.934;2022-10-17T13:58:41;2.17;;;0.80;;
67595;SDS011;54410;48.694;8.934;2022-10-17T14:01:08;1.35;;;1.10;;
67595;SDS011;54410;48.694;8.934;2022-10-17T14:03:34;4.25;;;1.33;;
67595;SDS011;54410;48.694;8.934;2022-10-17T14:08:29;1.17;;;1.05;;
67595;SDS011;54410;48.694;8.934;2022-10-17T14:10:56;2.22;;;1.23;;
67595;SDS011;54410;48.694;8.934;2022-10-17T14:13:25;1.17;;;1.08;;
67595;SDS011;54410;48.694;8.934;2022-10-17T14:15:56;4.38;;;1.23;;
67595;SDS011;54410;48.694;8.934;2022-10-17T14:18:27;1.50;;;1.00;;
67595;SDS011;54410;48.694;8.934;2022-10-17T14:20:53;2.25;;;1.10;;
67595;SDS011;54410;48.694;8.934;2022-10-17T14:26:13;4.50;;;1.17;;
67595;SDS011;54410;48.694;8.934;2022-10-17T14:28:39;2.40;;;1.35;;
67595;SDS011;54410;48.694;8.934;2022-10-17T14:33:41;1.73;;;1.08;;
67595;SDS011;54410;48.694;8.934;2022-10-17T14:36:08;1.75;;;1.08;;
67595;SDS011;54410;48.694;8.934;2022-10-17T14:38:34;2.40;;;1.13;;
67595;SDS011;54410;48.694;8.934;2022-10-17T14:41:01;3.63;;;1.30;;
67595;SDS011;54410;48.694;8.934;2022-10-17T14:43:28;1.10;;;1.00;;
67595;SDS011;54410;48.694;8.934;2022-10-17T14:45:58;1.67;;;1.25;;
67595;SDS011;54410;48.694;8.934;2022-10-17T14:48:25;2.80;;;1.13;;
67595;SDS011;54410;48.694;8.934;2022-10-17T14:54:03;3.17;;;1.33;;
67595;SDS011;54410;48.694;8.934;2022-10-17T14:56:34;1.75;;;1.15;;
67595;SDS011;54410;48.694;8.934;2022-10-17T14:59:00;1.52;;;1.10;;
67595;SDS011;54410;48.694;8.934;2022-10-17T15:01:29;3.80;;;1.27;;
67595;SDS011;54410;48.694;8.934;2022-10-17T15:03:55;1.92;;;1.13;;
67595;SDS011;54410;48.694;8.934;2022-10-17T15:06:32;4.10;;;1.38;;
67595;SDS011;54410;48.694;8.934;2022-10-17T15:08:58;4.00;;;1.00;;
67595;SDS011;54410;48.694;8.934;2022-10-17T15:11:24;1.50;;;1.10;;
67595;SDS011;54410;48.694;8.934;2022-10-17T15:13:50;1.20;;;1.10;;
67595;SDS011;54410;48.694;8.934;2022-10-17T15:16:20;2.30;;;1.17;;
67595;SDS011;54410;48.694;8.934;2022-10-17T15:18:47;1.30;;;1.13;;
67595;SDS011;54410;48.694;8.934;2022-10-17T15:21:14;2.65;;;1.20;;
67595;SDS011;54410;48.694;8.934;2022-10-17T15:23:40;3.22;;;2.50;;
67595;SDS011;54410;48.694;8.934;2022-10-17T15:28:41;1.58;;;1.08;;
67595;SDS011;54410;48.694;8.934;2022-10-17T15:31:09;2.78;;;1.13;;
67595;SDS011;54410;48.694;8.934;2022-10-17T15:33:35;2.83;;;1.10;;
67595;SDS011;54410;48.694;8.934;2022-10-17T15:36:01;1.95;;;1.30;;
67595;SDS011;54410;48.694;8.934;2022-10-17T15:38:27;2.17;;;1.20;;
67595;SDS011;54410;48.694;8.934;2022-10-17T15:40:53;2.00;;;1.30;;
67595;SDS011;54410;48.694;8.934;2022-10-17T15:43:19;2.10;;;1.38;;
67595;SDS011;54410;48.694;8.934;2022-10-17T15:45:45;2.92;;;1.40;;
67595;SDS011;54410;48.694;8.934;2022-10-17T15:48:15;1.40;;;1.15;;
67595;SDS011;54410;48.694;8.934;2022-10-17T15:50:43;2.78;;;1.35;;
67595;SDS011;54410;48.694;8.934;2022-10-17T15:53:12;2.45;;;1.30;;
67595;SDS011;54410;48.694;8.934;2022-10-17T15:55:38;2.67;;;1.25;;
67595;SDS011;54410;48.694;8.934;2022-10-17T15:58:04;2.83;;;1.52;;
67595;SDS011;54410;48.694;8.934;2022-10-17T16:00:30;1.95;;;1.30;;
67595;SDS011;54410;48.694;8.934;2022-10-17T16:02:56;3.97;;;1.88;;
67595;SDS011;54410;48.694;8.934;2022-10-17T16:05:23;1.85;;;1.55;;
67595;SDS011;54410;48.694;8.934;2022-10-17T16:07:50;5.22;;;1.70;;
67595;SDS011;54410;48.694;8.934;2022-10-17T16:10:16;4.25;;;1.38;;
67595;SDS011;54410;48.694;8.934;2022-10-17T16:12:42;2.25;;;1.70;;
67595;SDS011;54410;48.694;8.934;2022-10-17T16:15:12;2.40;;;1.20;;
67595;SDS011;54410;48.694;8.934;2022-10-17T16:17:38;2.97;;;1.40;;
67595;SDS011;54410;48.694;8.934;2022-10-17T16:20:04;4.82;;;1.48;;
67595;SDS011;54410;48.694;8.934;2022-10-17T16:22:31;3.00;;;1.58;;
67595;SDS011;54410;48.694;8.934;2022-10-17T16:25:00;2.55;;;1.30;;
67595;SDS011;54410;48.694;8.934;2022-10-17T16:27:33;2.58;;;1.85;;
67595;SDS011;54410;48.694;8.934;2022-10-17T16:29:59;6.15;;;2.03;;
67595;SDS011;54410;48.694;8.934;2022-10-17T16:32:25;3.15;;;2.20;;
67595;SDS011;54410;48.694;8.934;2022-10-17T16:34:51;7.07;;;2.22;;
67595;SDS011;54410;48.694;8.934;2022-10-17T16:37:17;5.82;;;3.75;;
67595;SDS011;54410;48.694;8.934;2022-10-17T16:39:43;6.47;;;4.57;;
67595;SDS011;54410;48.694;8.934;2022-10-17T16:42:13;5.43;;;2.80;;
67595;SDS011;54410;48.694;8.934;2022-10-17T16:44:39;3.05;;;1.80;;
67595;SDS011;54410;48.694;8.934;2022-10-17T16:47:05;6.95;;;2.38;;